Time;durP1;ratioP1;P1;durP2;ratioP2;P2;SDS_P1;SDS_P2;PMS_P1;PMS_P2;Temp;Humidity;BMP_temperature;BMP_pressure;BME280_temperature;BME280_humidity;BME280_pressure;Samples;Min_cycle;Max_cycle;Signal;HPM_P1;HPM_P2
2022/06/14 00:03:04;;;;;;;7.95;7.25;;;;;;;16.53;50.03;100538.34;5028205;28;96709;-83
2022/06/14 00:05:30;;;;;;;8.98;7.32;;;;;;;16.67;50.04;100566.72;5033321;28;97482;-82
2022/06/14 00:07:56;;;;;;;8.20;7.40;;;;;;;16.67;50.08;100574.69;5015377;28;97494;-83
2022/06/14 00:10:21;;;;;;;7.93;7.32;;;;;;;16.56;49.89;100574.41;5032169;28;97610;-84
2022/06/14 00:12:47;;;;;;;8.05;7.35;;;;;;;16.53;50.58;100570.13;5031745;27;96978;-82
2022/06/14 00:15:13;;;;;;;9.88;7.60;;;;;;;16.17;50.46;100535.03;5026091;28;97548;-81
2022/06/14 00:17:38;;;;;;;7.88;7.38;;;;;;;16.45;50.50;100584.75;5022025;28;97659;-82
2022/06/14 00:20:05;;;;;;;8.98;7.97;;;;;;;16.50;50.30;100588.84;5002626;28;101521;-83
2022/06/14 00:22:32;;;;;;;8.25;7.55;;;;;;;16.44;50.62;100588.34;5013909;28;96723;-82
2022/06/14 00:24:58;;;;;;;7.82;7.07;;;;;;;16.38;50.40;100586.03;5031990;28;96934;-82
2022/06/14 00:27:23;;;;;;;11.38;7.60;;;;;;;16.23;50.36;100562.06;5015705;28;97691;-82
2022/06/14 00:29:48;;;;;;;8.63;7.82;;;;;;;16.39;50.52;100600.97;5015090;28;100868;-82
2022/06/14 00:32:14;;;;;;;8.05;6.95;;;;;;;16.10;50.84;100566.28;5014958;28;97297;-82
2022/06/14 00:34:39;;;;;;;7.78;7.18;;;;;;;16.05;51.28;100565.66;5032418;28;97106;-84
2022/06/14 00:37:05;;;;;;;7.97;7.38;;;;;;;16.06;50.88;100570.06;5014489;28;101006;-84
2022/06/14 00:39:30;;;;;;;7.70;7.20;;;;;;;16.14;51.10;100594.31;5011700;28;97889;-84
2022/06/14 00:41:56;;;;;;;7.68;6.95;;;;;;;16.15;50.99;100598.69;5010215;28;96755;-82
2022/06/14 00:44:25;;;;;;;8.48;7.68;;;;;;;16.11;51.24;100609.50;5011378;28;96828;-82
2022/06/14 00:47:13;;;;;;;10.30;7.43;;;;;;;16.05;51.42;100600.94;5020006;28;101024;-82
2022/06/14 00:49:52;;;;;;;8.15;7.55;;;;;;;16.11;51.14;100609.50;5031704;28;98408;-84
2022/06/14 00:52:18;;;;;;;8.20;7.50;;;;;;;16.05;51.10;100610.69;5040660;27;96852;-82
2022/06/14 00:54:45;;;;;;;7.57;7.05;;;;;;;16.03;51.59;100608.13;5015236;28;97431;-82
2022/06/14 00:57:15;;;;;;;10.43;7.18;;;;;;;15.84;51.55;100591.47;4998033;28;100834;-84
2022/06/14 00:59:48;;;;;;;8.40;7.43;;;;;;;15.95;51.58;100609.47;5031325;28;97792;-82
2022/06/14 01:02:16;;;;;;;8.38;7.75;;;;;;;15.89;51.80;100613.28;5014505;28;96898;-84
2022/06/14 01:04:42;;;;;;;8.05;7.40;;;;;;;15.88;51.87;100618.66;5031344;28;96780;-84
2022/06/14 01:07:16;;;;;;;8.13;7.32;;;;;;;15.74;52.15;100612.28;5031686;28;97395;-83
2022/06/14 01:09:46;;;;;;;7.38;6.90;;;;;;;15.70;52.33;100609.84;5031315;28;97628;-84
2022/06/14 01:12:15;;;;;;;7.67;7.17;;;;;;;15.56;52.33;100595.53;5014644;28;96858;-82
2022/06/14 01:14:52;;;;;;;8.20;7.47;;;;;;;15.73;52.48;100618.50;5015001;28;96897;-83
2022/06/14 01:17:18;;;;;;;9.50;7.47;;;;;;;15.66;52.71;100622.34;5006669;28;98015;-83
2022/06/14 01:19:44;;;;;;;7.43;6.85;;;;;;;15.62;52.26;100612.88;5010038;28;100916;-82
2022/06/14 01:22:09;;;;;;;8.45;7.68;;;;;;;15.72;52.21;100623.88;5008532;28;96764;-82
2022/06/14 01:24:36;;;;;;;8.07;7.28;;;;;;;15.61;52.68;100622.56;5030889;27;96779;-82
2022/06/14 01:27:04;;;;;;;8.38;7.55;;;;;;;15.66;52.76;100627.66;5021512;28;101565;-83
2022/06/14 01:29:32;;;;;;;10.38;8.05;;;;;;;15.45;52.92;100610.22;5032248;28;98777;-84
2022/06/14 01:31:59;;;;;;;8.70;7.90;;;;;;;15.59;52.84;100634.16;5014923;28;96869;-83
2022/06/14 01:34:26;;;;;;;8.30;7.47;;;;;;;15.49;52.75;100633.78;5014429;28;97792;-84
2022/06/14 01:36:53;;;;;;;8.75;7.97;;;;;;;15.49;52.90;100639.06;5014731;28;101003;-82
2022/06/14 01:39:19;;;;;;;7.95;7.30;;;;;;;15.45;53.25;100631.38;5010067;28;97952;-82
2022/06/14 01:42:04;;;;;;;8.30;7.57;;;;;;;15.39;53.53;100641.31;5014757;28;96767;-82
2022/06/14 01:44:54;;;;;;;8.00;7.30;;;;;;;15.32;53.78;100642.53;5029191;28;96881;-82
2022/06/14 01:47:45;;;;;;;8.75;7.90;;;;;;;15.38;53.57;100630.81;5014005;28;98559;-82
2022/06/14 01:53:32;;;;;;;8.55;7.80;;;;;;;15.29;53.63;100653.25;5024874;28;97116;-84
2022/06/14 01:56:26;;;;;;;8.07;7.38;;;;;;;15.27;54.25;100651.63;5031715;28;96901;-84
2022/06/14 01:59:14;;;;;;;8.32;7.47;;;;;;;15.20;54.20;100643.13;5031881;28;97682;-82
2022/06/14 02:01:54;;;;;;;8.63;7.55;;;;;;;15.04;54.05;100621.88;5018567;28;97873;-82
2022/06/14 02:04:42;;;;;;;9.47;7.73;;;;;;;15.15;54.47;100648.66;5030542;28;97302;-82
2022/06/14 02:07:32;;;;;;;8.60;7.82;;;;;;;15.22;54.24;100651.00;4994324;28;96819;-84
2022/06/14 02:10:11;;;;;;;8.60;7.80;;;;;;;15.23;54.15;100648.28;5010951;28;101479;-84
2022/06/14 02:13:08;;;;;;;8.07;7.30;;;;;;;15.12;54.54;100648.78;5014611;28;97699;-84
2022/06/14 02:15:39;;;;;;;8.73;7.78;;;;;;;15.13;54.40;100650.50;5014380;28;96940;-84
2022/06/14 02:18:11;;;;;;;8.65;7.85;;;;;;;15.23;54.51;100661.50;5010600;28;97017;-84
2022/06/14 02:20:42;;;;;;;8.50;7.70;;;;;;;15.08;54.58;100636.66;5009928;28;101089;-84
2022/06/14 02:23:08;;;;;;;8.25;7.60;;;;;;;15.08;54.33;100633.16;4996297;28;101526;-84
2022/06/14 02:25:39;;;;;;;8.23;7.47;;;;;;;15.03;54.61;100640.44;5031087;28;99246;-84
2022/06/14 02:28:10;;;;;;;7.63;6.90;;;;;;;15.10;54.95;100663.03;5022227;28;97244;-83
2022/06/14 02:30:40;;;;;;;7.90;7.18;;;;;;;15.14;54.68;100665.44;5013743;28;97571;-84
2022/06/14 02:33:11;;;;;;;7.43;6.82;;;;;;;15.12;54.75;100666.44;5010352;28;97300;-81
2022/06/14 02:35:47;;;;;;;11.70;8.37;;;;;;;15.08;54.96;100665.72;5011087;28;97686;-84
2022/06/14 02:38:15;;;;;;;8.15;7.50;;;;;;;15.14;54.69;100669.88;5030706;28;96830;-84
2022/06/14 02:40:50;;;;;;;8.43;7.63;;;;;;;14.91;54.62;100623.38;5030458;28;98019;-84
2022/06/14 02:43:23;;;;;;;10.02;7.78;;;;;;;15.12;54.87;100658.50;5013351;28;101123;-84
2022/06/14 02:45:55;;;;;;;9.25;8.25;;;;;;;15.11;54.98;100673.50;5011741;28;96916;-84
2022/06/14 02:48:27;;;;;;;11.05;7.60;;;;;;;15.11;54.93;100670.88;4992980;28;97209;-84
2022/06/14 02:51:11;;;;;;;8.63;7.93;;;;;;;15.04;55.41;100676.50;5003950;28;101801;-84
2022/06/14 02:53:42;;;;;;;8.35;7.68;;;;;;;15.10;55.28;100673.59;5030283;28;97679;-84
2022/06/14 02:56:10;;;;;;;8.43;7.25;;;;;;;15.01;55.25;100680.19;5024949;28;96886;-84
2022/06/14 02:58:35;;;;;;;7.85;7.25;;;;;;;15.05;55.09;100681.75;5012908;28;97014;-83
2022/06/14 03:01:06;;;;;;;8.50;7.70;;;;;;;15.04;55.31;100684.44;5030795;28;98604;-84
2022/06/14 03:03:39;;;;;;;8.30;7.53;;;;;;;15.06;55.47;100688.72;5030863;28;97921;-84
2022/06/14 03:06:11;;;;;;;8.40;7.80;;;;;;;15.09;55.38;100698.31;5012987;28;97245;-84
2022/06/14 03:08:55;;;;;;;9.35;7.82;;;;;;;15.14;55.37;100704.25;5019807;28;99103;-84
2022/06/14 03:11:31;;;;;;;7.75;7.10;;;;;;;15.04;55.54;100687.97;4986291;28;100103;-82
2022/06/14 03:14:06;;;;;;;8.18;7.35;;;;;;;14.99;55.67;100695.25;4983386;28;99833;-83
2022/06/14 03:16:53;;;;;;;7.57;7.00;;;;;;;15.00;55.79;100710.16;5011178;28;97186;-84
2022/06/14 03:19:24;;;;;;;8.50;7.57;;;;;;;15.09;55.50;100704.44;5010986;28;97173;-82
2022/06/14 03:22:12;;;;;;;8.35;7.75;;;;;;;15.20;55.57;100698.66;5023156;28;98041;-83
2022/06/14 03:24:54;;;;;;;8.65;7.75;;;;;;;15.40;55.02;100708.31;5009655;28;101152;-84
2022/06/14 03:27:20;;;;;;;7.70;7.10;;;;;;;15.34;54.90;100690.94;5003450;28;97047;-84
2022/06/14 03:30:10;;;;;;;8.25;7.65;;;;;;;15.50;54.74;100711.34;5013050;28;96954;-84
2022/06/14 03:33:03;;;;;;;9.98;8.90;;;;;;;15.52;54.84;100713.00;5000257;28;99824;-84
2022/06/14 03:35:38;;;;;;;8.27;7.55;;;;;;;15.60;54.93;100716.13;5029770;28;97858;-84
2022/06/14 03:38:19;;;;;;;8.13;7.53;;;;;;;15.75;54.48;100705.75;5012530;28;97138;-84
2022/06/14 03:40:46;;;;;;;7.55;6.97;;;;;;;15.75;54.31;100703.97;5013268;27;97449;-84
2022/06/14 03:43:12;;;;;;;7.80;7.10;;;;;;;15.76;54.27;100710.97;5032655;28;97522;-84
2022/06/14 03:45:53;;;;;;;7.88;7.28;;;;;;;15.62;54.43;100700.19;5026759;28;101186;-84
2022/06/14 03:48:19;;;;;;;11.48;7.20;;;;;;;15.63;54.58;100726.56;5015776;28;98534;-84
2022/06/14 03:51:19;;;;;;;8.43;7.75;;;;;;;15.62;54.90;100727.50;5012475;28;97025;-84
2022/06/14 03:54:25;;;;;;;8.27;7.57;;;;;;;15.73;54.64;100731.44;5015995;28;101572;-84
2022/06/14 03:57:10;;;;;;;8.63;8.02;;;;;;;15.65;54.66;100731.81;5030639;28;97293;-84
2022/06/14 03:59:55;;;;;;;7.82;7.22;;;;;;;15.62;54.93;100731.94;5033746;28;96720;-85
2022/06/14 04:02:52;;;;;;;8.10;7.43;;;;;;;15.53;55.08;100733.25;5033316;28;96877;-84
2022/06/14 04:05:35;;;;;;;8.50;7.80;;;;;;;15.57;54.84;100724.22;5031686;28;97579;-84
2022/06/14 04:08:13;;;;;;;9.18;8.35;;;;;;;15.60;54.86;100726.72;5032326;28;97559;-82
2022/06/14 04:10:42;;;;;;;10.27;8.05;;;;;;;15.60;55.18;100728.50;5032983;28;96795;-84
2022/06/14 04:13:26;;;;;;;11.23;8.75;;;;;;;15.67;55.52;100735.22;4998795;28;97014;-84
2022/06/14 04:15:59;;;;;;;10.02;8.80;;;;;;;15.82;54.96;100730.97;5016347;28;101253;-84
2022/06/14 04:18:38;;;;;;;9.57;8.80;;;;;;;16.07;54.43;100728.84;5011994;28;101595;-84
2022/06/14 04:21:22;;;;;;;9.20;8.60;;;;;;;16.27;53.77;100730.47;5031197;28;96800;-84
2022/06/14 04:23:50;;;;;;;10.07;9.23;;;;;;;16.46;53.42;100733.03;5022812;28;97062;-82
2022/06/14 04:26:25;;;;;;;9.25;8.52;;;;;;;16.47;53.44;100736.53;5032567;28;101446;-82
2022/06/14 04:29:17;;;;;;;9.27;8.43;;;;;;;16.45;53.41;100726.00;5031687;28;101521;-81
2022/06/14 04:31:47;;;;;;;;;;;;;;;16.49;53.54;100737.31;4999388;28;97355;-82
2022/06/14 04:34:33;;;;;;;9.35;8.45;;;;;;;16.45;53.52;100735.75;5012249;28;96985;-82
2022/06/14 04:37:13;;;;;;;9.30;8.50;;;;;;;16.38;53.49;100737.03;5027519;28;98607;-81
2022/06/14 04:39:40;;;;;;;9.93;9.02;;;;;;;16.65;53.29;100738.22;5015332;28;97911;-81
2022/06/14 04:42:19;;;;;;;9.60;8.90;;;;;;;16.70;52.93;100701.75;4998798;28;96779;-81
2022/06/14 04:44:55;;;;;;;12.90;8.40;;;;;;;17.04;52.47;100725.59;5012309;28;98261;-82
2022/06/14 04:47:46;;;;;;;9.13;8.32;;;;;;;17.27;52.27;100724.34;5014552;28;97974;-82
2022/06/14 04:50:16;;;;;;;;;;;;;;;17.45;51.98;100717.97;5019628;28;98543;-82
2022/06/14 04:52:52;;;;;;;9.88;8.88;;;;;;;17.50;51.78;100704.47;5013835;28;96856;-81
2022/06/14 04:55:28;;;;;;;9.25;8.65;;;;;;;17.83;51.01;100726.47;5001068;28;96955;-82
2022/06/14 04:58:10;;;;;;;9.43;8.65;;;;;;;17.97;50.90;100735.41;4990206;28;100681;-85
2022/06/14 05:00:37;;;;;;;;;;;;;;;18.10;50.83;100733.78;5013488;28;97985;-82
2022/06/14 05:03:10;;;;;;;10.13;9.13;;;;;;;18.24;50.58;100730.31;5013897;28;96766;-82
2022/06/14 05:06:02;;;;;;;9.30;8.60;;;;;;;18.47;50.00;100732.44;4995986;28;97400;-84
2022/06/14 05:08:33;;;;;;;9.98;9.00;;;;;;;18.71;49.57;100730.06;4990817;28;100472;-82
2022/06/14 05:11:09;;;;;;;9.50;8.75;;;;;;;18.77;49.43;100724.41;5009359;28;97936;-82
2022/06/14 05:13:46;;;;;;;10.52;9.35;;;;;;;19.01;48.95;100718.50;5002731;28;96816;-83
2022/06/14 05:16:32;;;;;;;9.68;8.95;;;;;;;19.00;48.63;100709.69;5013523;28;96858;-83
2022/06/14 05:19:19;;;;;;;9.48;8.70;;;;;;;19.22;48.09;100719.78;5019134;28;97590;-82
2022/06/14 05:21:49;;;;;;;9.00;8.40;;;;;;;19.20;47.98;100703.09;5016555;28;98125;-84
2022/06/14 05:24:15;;;;;;;9.10;8.45;;;;;;;19.41;47.57;100700.00;5017999;28;97312;-84
2022/06/14 05:27:20;;;;;;;8.88;8.27;;;;;;;19.77;47.05;100719.88;4995625;28;96687;-85
2022/06/14 05:30:00;;;;;;;10.00;9.20;;;;;;;19.91;46.88;100727.81;5019665;28;101917;-83
2022/06/14 05:32:51;;;;;;;9.60;8.77;;;;;;;20.10;46.86;100724.75;5032972;27;98340;-84
2022/06/14 05:35:17;;;;;;;;;;;;;;;20.32;46.33;100721.50;5005785;28;97561;-84
2022/06/14 05:37:51;;;;;;;9.85;9.15;;;;;;;20.38;46.09;100723.72;5013719;28;97203;-86
2022/06/14 05:40:26;;;;;;;9.75;8.98;;;;;;;20.37;45.88;100730.03;5008808;28;100465;-84
2022/06/14 05:43:05;;;;;;;9.80;9.20;;;;;;;20.46;45.45;100723.22;5014586;28;101330;-78
2022/06/14 05:45:31;;;;;;;9.45;8.70;;;;;;;20.67;45.49;100715.56;5031091;28;96846;-77
2022/06/14 05:48:05;;;;;;;10.93;8.48;;;;;;;20.45;45.10;100710.81;4994929;28;96888;-83
2022/06/14 05:50:36;;;;;;;9.77;8.98;;;;;;;20.70;45.37;100740.19;5018285;28;97755;-96
2022/06/14 05:53:10;;;;;;;9.85;8.98;;;;;;;21.14;44.30;100727.34;5013586;28;101191;-85
2022/06/14 05:56:11;;;;;;;10.32;8.93;;;;;;;20.85;44.64;100732.94;5033662;28;97104;-85
2022/06/14 05:58:48;;;;;;;11.33;10.33;;;;;;;20.69;45.05;100740.31;4997497;28;97253;-85
2022/06/14 06:01:18;;;;;;;9.57;8.82;;;;;;;20.55;45.09;100736.78;4998053;28;100584;-85
2022/06/14 06:03:52;;;;;;;11.02;10.00;;;;;;;20.44;45.19;100722.47;4994690;28;101349;-85
2022/06/14 06:06:21;;;;;;;12.27;9.32;;;;;;;22.47;42.37;100743.34;5009193;28;98941;-85
2022/06/14 06:09:13;;;;;;;10.68;9.77;;;;;;;23.16;40.79;100741.47;5011690;28;96923;-85
2022/06/14 06:11:58;;;;;;;13.95;9.82;;;;;;;24.49;38.25;100729.56;5022970;28;98617;-84
2022/06/14 06:14:30;;;;;;;11.15;10.15;;;;;;;25.67;36.64;100735.25;4997134;28;99967;-84
2022/06/14 06:17:07;;;;;;;10.80;9.85;;;;;;;26.77;34.51;100734.91;5014233;28;97060;-85
2022/06/14 06:20:04;;;;;;;10.57;9.48;;;;;;;27.73;33.20;100735.41;5010860;28;97106;-86
2022/06/14 06:22:38;;;;;;;11.25;10.25;;;;;;;28.06;33.45;100737.56;5025424;28;98296;-85
2022/06/14 06:25:11;;;;;;;10.43;9.73;;;;;;;28.71;31.37;100732.69;5031749;28;97707;-86
2022/06/14 06:28:02;;;;;;;11.27;10.18;;;;;;;29.39;30.62;100722.88;5017501;28;97443;-85
2022/06/14 06:30:58;;;;;;;10.70;9.80;;;;;;;29.69;30.38;100734.94;5016868;28;98061;-85
2022/06/14 06:33:26;;;;;;;14.95;10.25;;;;;;;30.58;29.29;100734.13;5020770;28;101183;-86
2022/06/14 06:36:10;;;;;;;13.68;10.45;;;;;;;31.16;29.15;100734.81;5020064;28;98405;-86
2022/06/14 06:38:41;;;;;;;12.27;11.18;;;;;;;31.12;28.05;100728.03;5031198;28;97092;-86
2022/06/14 06:44:08;;;;;;;10.93;10.02;;;;;;;31.80;27.59;100710.22;5027542;28;98025;-87
2022/06/14 06:46:38;;;;;;;11.75;10.70;;;;;;;31.47;27.61;100712.28;5014640;28;98105;-87
2022/06/14 06:49:06;;;;;;;12.13;11.27;;;;;;;31.36;28.11;100724.41;4994951;28;97065;-87
2022/06/14 06:51:39;;;;;;;11.45;10.45;;;;;;;31.45;27.75;100719.78;4997927;28;97149;-88
2022/06/14 06:54:17;;;;;;;12.60;11.40;;;;;;;31.43;27.80;100722.66;5032301;28;97553;-88
2022/06/14 06:56:45;;;;;;;11.65;10.73;;;;;;;32.54;26.58;100724.00;5013847;28;98109;-87
2022/06/14 06:59:28;;;;;;;11.00;10.20;;;;;;;32.71;26.38;100719.25;5002196;28;97493;-88
2022/06/14 07:01:57;;;;;;;11.80;10.60;;;;;;;32.39;26.58;100707.66;5011670;28;96751;-88
2022/06/14 07:07:14;;;;;;;;;;;;;;;33.07;25.73;100721.22;5005525;28;101022;-80
2022/06/14 07:09:48;;;;;;;13.15;11.15;;;;;;;33.51;25.49;100722.97;5007942;28;97172;-84
2022/06/14 07:12:23;;;;;;;12.10;11.15;;;;;;;33.42;25.69;100722.25;5015466;28;98359;-83
2022/06/14 07:15:00;;;;;;;11.55;10.85;;;;;;;33.13;25.69;100712.28;5016469;28;97695;-89
2022/06/14 07:17:44;;;;;;;12.68;11.73;;;;;;;33.20;25.74;100707.78;4997127;28;99631;-80
2022/06/14 07:20:28;;;;;;;12.30;11.20;;;;;;;33.25;25.59;100709.91;5035511;28;96800;-77
2022/06/14 07:23:10;;;;;;;11.27;10.43;;;;;;;32.44;26.10;100710.66;5028107;28;97059;-78
2022/06/14 07:26:17;;;;;;;12.30;11.23;;;;;;;32.11;26.08;100701.97;4985005;28;101089;-90
2022/06/14 07:29:03;;;;;;;11.98;10.73;;;;;;;30.67;27.95;100706.00;5032237;28;96668;-89
2022/06/14 07:31:44;;;;;;;11.90;11.02;;;;;;;29.35;29.61;100708.81;5026512;28;96832;-91
2022/06/14 07:34:11;;;;;;;12.40;11.30;;;;;;;29.60;29.11;100685.38;5003782;28;96818;-90
2022/06/14 07:36:42;;;;;;;12.98;11.88;;;;;;;29.15;29.49;100705.56;5005750;28;101073;-93
2022/06/14 07:39:20;;;;;;;11.95;11.07;;;;;;;28.55;30.57;100708.28;5020214;28;98278;-85
2022/06/14 07:42:00;;;;;;;12.70;11.57;;;;;;;27.40;31.50;100695.59;5016585;28;97071;-84
2022/06/14 07:44:39;;;;;;;12.57;11.68;;;;;;;28.30;29.86;100696.44;4996272;28;96892;-85
2022/06/14 07:47:30;;;;;;;12.32;11.13;;;;;;;28.74;29.69;100694.56;5016253;28;101365;-87
2022/06/14 07:50:14;;;;;;;11.35;10.35;;;;;;;27.22;31.05;100709.06;5026188;28;101234;-85
2022/06/14 07:52:47;;;;;;;12.50;10.85;;;;;;;26.89;32.30;100718.56;5005483;28;97173;-84
2022/06/14 07:55:32;;;;;;;11.25;10.15;;;;;;;27.13;31.25;100713.47;5023737;28;97147;-89
2022/06/14 07:58:02;;;;;;;10.65;9.75;;;;;;;27.56;30.81;100703.03;5011244;28;97547;-84
2022/06/14 08:03:25;;;;;;;11.18;10.18;;;;;;;27.62;30.92;100714.03;5016476;28;96849;-82
2022/06/14 08:05:52;;;;;;;11.63;10.63;;;;;;;27.75;30.55;100716.34;4998219;28;96988;-87
2022/06/14 08:08:25;;;;;;;11.80;10.35;;;;;;;27.13;31.07;100702.69;5010992;28;101300;-85
2022/06/14 08:10:56;;;;;;;12.30;11.30;;;;;;;27.55;30.70;100718.38;5014230;28;97994;-84
2022/06/14 08:13:28;;;;;;;12.27;11.30;;;;;;;26.66;31.88;100726.16;4996804;28;97016;-84
2022/06/14 08:15:55;;;;;;;11.18;10.38;;;;;;;25.87;32.97;100705.72;4990645;28;97010;-81
2022/06/14 08:18:37;;;;;;;11.38;10.50;;;;;;;25.45;33.65;100722.06;5009665;28;101336;-83
2022/06/14 08:21:12;;;;;;;10.93;10.13;;;;;;;26.56;32.83;100729.72;5011472;28;100820;-82
2022/06/14 08:23:44;;;;;;;10.75;9.98;;;;;;;27.40;31.41;100696.47;5030236;28;98232;-81
2022/06/14 08:26:09;;;;;;;11.05;10.25;;;;;;;27.90;30.28;100712.16;5012355;28;96908;-82
2022/06/14 08:29:10;;;;;;;11.55;10.50;;;;;;;28.74;28.17;100718.00;5030529;27;97622;-83
2022/06/14 08:31:51;;;;;;;11.82;10.90;;;;;;;29.16;28.08;100695.59;4999510;28;101153;-82
2022/06/14 08:34:30;;;;;;;11.02;10.32;;;;;;;29.80;27.60;100710.28;5012329;28;96818;-81
2022/06/14 08:37:08;;;;;;;11.50;10.27;;;;;;;30.38;26.95;100703.03;5012267;28;96871;-84
2022/06/14 08:39:56;;;;;;;12.32;11.20;;;;;;;29.18;27.83;100705.22;5027221;28;98254;-82
2022/06/14 08:42:33;;;;;;;11.95;11.05;;;;;;;29.17;28.35;100705.38;5012557;28;97991;-82
2022/06/14 08:45:05;;;;;;;12.35;11.25;;;;;;;30.06;27.76;100709.28;4996244;28;97375;-83
2022/06/14 08:47:44;;;;;;;11.00;10.07;;;;;;;30.47;26.81;100706.56;5014618;28;96906;-82
2022/06/14 08:50:35;;;;;;;11.38;10.38;;;;;;;30.79;26.17;100711.06;5031466;27;99219;-83
2022/06/14 08:53:14;;;;;;;11.73;10.82;;;;;;;31.19;26.02;100699.22;5013276;28;101349;-81
2022/06/14 08:55:52;;;;;;;10.93;9.90;;;;;;;31.25;25.54;100697.66;5028275;28;98750;-82
2022/06/14 08:58:32;;;;;;;10.48;9.68;;;;;;;30.72;25.97;100696.47;5028800;28;96775;-82
2022/06/14 09:01:42;;;;;;;10.20;9.48;;;;;;;30.68;26.25;100698.69;5019718;28;101414;-85
2022/06/14 09:04:19;;;;;;;9.87;9.20;;;;;;;30.22;26.64;100695.75;4978352;28;99877;-84
2022/06/14 09:07:09;;;;;;;10.60;9.70;;;;;;;29.73;26.76;100679.50;5014017;28;98580;-90
2022/06/14 09:10:10;;;;;;;9.52;8.82;;;;;;;29.17;27.03;100681.06;5013948;28;97356;-88
2022/06/14 09:13:18;;;;;;;10.05;9.35;;;;;;;29.35;27.17;100687.19;5025116;28;101543;-88
2022/06/14 09:16:02;;;;;;;10.05;9.07;;;;;;;28.49;27.94;100696.25;4976499;28;98409;-89
2022/06/14 09:18:41;;;;;;;10.35;9.40;;;;;;;28.05;28.25;100698.97;5017487;28;97386;-86
2022/06/14 09:21:16;;;;;;;11.25;10.02;;;;;;;27.86;28.76;100702.66;5019048;28;97028;-88
2022/06/14 09:24:12;;;;;;;10.98;10.07;;;;;;;28.24;28.29;100697.91;5012409;28;101510;-87
2022/06/14 09:26:56;;;;;;;10.50;9.60;;;;;;;28.09;28.66;100686.00;5032302;28;97797;-86
2022/06/14 09:29:46;;;;;;;10.70;9.60;;;;;;;27.81;28.38;100701.44;5025969;28;96677;-87
2022/06/14 09:36:07;;;;;;;9.68;8.88;;;;;;;27.08;29.00;100702.28;5026907;28;102103;-87
2022/06/14 09:39:14;;;;;;;9.95;9.15;;;;;;;27.07;29.19;100693.38;5023950;28;100332;-86
2022/06/14 09:41:58;;;;;;;10.40;9.30;;;;;;;27.07;28.75;100701.44;5014026;28;97271;-87
2022/06/14 09:44:58;;;;;;;10.65;9.65;;;;;;;27.04;29.58;100692.81;5028012;28;97135;-87
2022/06/14 09:47:42;;;;;;;9.93;9.18;;;;;;;27.03;29.04;100693.84;5014163;28;100233;-87
2022/06/14 09:50:33;;;;;;;10.77;9.82;;;;;;;26.78;29.23;100698.88;5021606;28;101341;-87
2022/06/14 09:53:24;;;;;;;10.48;9.65;;;;;;;26.47;29.26;100692.91;5017800;28;96722;-87
2022/06/14 09:56:01;;;;;;;10.88;10.00;;;;;;;26.56;29.68;100692.03;5019956;28;97261;-87
2022/06/14 09:58:58;;;;;;;10.68;9.88;;;;;;;26.35;29.62;100694.03;5020299;28;98269;-86
2022/06/14 10:01:37;;;;;;;9.98;9.23;;;;;;;26.25;30.19;100696.75;5029760;28;101539;-88
2022/06/14 10:04:30;;;;;;;10.03;9.13;;;;;;;26.19;30.19;100702.72;5003509;28;96927;-86
2022/06/14 10:07:02;;;;;;;9.77;9.05;;;;;;;25.83;30.32;100705.16;4975212;28;97132;-87
2022/06/14 10:09:36;;;;;;;10.45;8.90;;;;;;;25.91;30.69;100699.06;5028885;28;97178;-86
2022/06/14 10:12:06;;;;;;;10.15;9.35;;;;;;;25.83;30.56;100698.91;5013849;28;101160;-86
2022/06/14 10:14:43;;;;;;;9.80;9.00;;;;;;;25.69;29.74;100697.50;5030808;28;97417;-86
2022/06/14 10:17:41;;;;;;;8.98;8.27;;;;;;;25.67;30.47;100699.47;5005722;28;97094;-87
2022/06/14 10:20:27;;;;;;;9.70;8.52;;;;;;;25.60;29.95;100696.50;5013053;28;101204;-87
2022/06/14 10:23:17;;;;;;;9.98;9.15;;;;;;;25.46;29.82;100692.38;5027428;28;100160;-88
2022/06/14 10:29:00;;;;;;;9.52;8.82;;;;;;;25.26;29.80;100687.94;5014023;28;97351;-86
2022/06/14 10:31:54;;;;;;;9.98;9.25;;;;;;;25.33;29.28;100683.72;5015307;28;98548;-87
2022/06/14 10:34:28;;;;;;;8.77;8.27;;;;;;;25.31;29.40;100688.41;5001177;28;101020;-87
2022/06/14 10:37:15;;;;;;;9.55;8.70;;;;;;;25.19;29.87;100673.34;5020448;28;96697;-87
2022/06/14 10:40:03;;;;;;;9.45;8.65;;;;;;;25.22;30.51;100676.63;5012233;28;96957;-88
2022/06/14 10:43:06;;;;;;;13.18;8.85;;;;;;;25.06;30.51;100682.50;5010551;28;101682;-88
2022/06/14 10:45:40;;;;;;;9.10;8.27;;;;;;;24.99;30.56;100686.72;5002095;28;101497;-87
2022/06/14 10:48:21;;;;;;;8.63;8.02;;;;;;;24.96;30.31;100676.25;5008932;28;97452;-86
2022/06/14 10:51:08;;;;;;;8.50;8.00;;;;;;;24.91;30.15;100678.50;5016216;28;96856;-86
2022/06/14 10:54:15;;;;;;;9.30;8.73;;;;;;;24.89;30.16;100677.78;5020340;28;98644;-86
2022/06/14 10:57:02;;;;;;;9.57;8.60;;;;;;;24.87;30.19;100674.41;5025943;28;98230;-87
2022/06/14 10:59:46;;;;;;;9.15;8.32;;;;;;;24.84;30.28;100685.38;5016068;28;96859;-87
2022/06/14 11:02:27;;;;;;;9.35;8.63;;;;;;;24.76;30.48;100682.53;5016803;28;97253;-87
2022/06/14 11:05:05;;;;;;;10.10;8.77;;;;;;;24.80;30.69;100676.75;4999858;28;101123;-87
2022/06/14 11:07:40;;;;;;;10.00;9.27;;;;;;;24.71;31.10;100669.50;5018596;28;98359;-87
2022/06/14 11:10:33;;;;;;;9.13;8.50;;;;;;;24.78;30.91;100665.31;5006462;28;96740;-87
2022/06/14 11:13:11;;;;;;;9.02;8.45;;;;;;;24.77;30.58;100668.13;4996736;28;97169;-88
2022/06/14 11:16:02;;;;;;;9.70;8.90;;;;;;;24.57;30.23;100673.41;5016713;28;98495;-85
2022/06/14 11:19:00;;;;;;;9.50;8.68;;;;;;;24.56;31.71;100677.06;5006320;28;98468;-82
2022/06/14 11:21:47;;;;;;;13.60;9.30;;;;;;;24.71;30.88;100671.34;5011190;28;96830;-86
2022/06/14 11:24:39;;;;;;;11.93;8.90;;;;;;;24.58;30.13;100676.94;5022973;28;97309;-86
2022/06/14 11:27:11;;;;;;;8.63;8.13;;;;;;;24.39;31.08;100672.28;5014073;28;98300;-86
2022/06/14 11:29:51;;;;;;;9.73;8.95;;;;;;;24.36;31.24;100659.16;5003945;28;99796;-85
2022/06/14 11:32:31;;;;;;;9.50;8.63;;;;;;;24.32;31.28;100671.97;5032128;28;97247;-84
2022/06/14 11:35:13;;;;;;;9.05;8.45;;;;;;;24.37;30.95;100676.94;5013919;28;97048;-85
2022/06/14 11:37:47;;;;;;;9.30;8.60;;;;;;;24.34;30.71;100664.63;5022131;28;101319;-84
2022/06/14 11:40:21;;;;;;;9.60;8.80;;;;;;;24.40;30.69;100676.66;5012890;28;101511;-80
2022/06/14 11:43:10;;;;;;;9.00;8.20;;;;;;;24.37;29.77;100667.03;5002129;28;97750;-81
2022/06/14 11:45:41;;;;;;;8.85;8.15;;;;;;;24.37;30.98;100667.03;4997570;28;96877;-81
2022/06/14 11:48:26;;;;;;;8.93;8.00;;;;;;;24.18;29.79;100667.81;5016491;28;101389;-80
2022/06/14 11:50:54;;;;;;;8.68;7.88;;;;;;;24.16;30.33;100672.44;4998315;28;101794;-80
2022/06/14 11:53:48;;;;;;;9.13;8.32;;;;;;;24.29;30.73;100660.66;5010668;28;97267;-81
2022/06/14 11:56:35;;;;;;;12.15;8.88;;;;;;;24.37;31.69;100659.00;5021259;28;96854;-80
2022/06/14 11:59:14;;;;;;;8.60;8.00;;;;;;;24.35;30.49;100654.78;5026958;28;97616;-85
2022/06/14 12:01:54;;;;;;;8.60;7.90;;;;;;;24.02;30.79;100623.66;4994012;28;102190;-83
2022/06/14 12:04:27;;;;;;;9.07;8.38;;;;;;;24.22;30.30;100654.97;5013585;28;96886;-86
2022/06/14 12:07:07;;;;;;;8.88;8.07;;;;;;;24.02;30.70;100635.22;5001980;28;96774;-85
2022/06/14 12:10:02;;;;;;;9.13;8.13;;;;;;;24.16;30.53;100666.22;5030648;28;98263;-87
2022/06/14 12:13:02;;;;;;;15.10;9.07;;;;;;;24.06;30.14;100671.53;5012275;28;100935;-86
2022/06/14 12:15:48;;;;;;;9.70;8.27;;;;;;;24.04;30.19;100660.09;5014189;28;96859;-86
2022/06/14 12:18:16;;;;;;;11.23;9.00;;;;;;;24.07;30.65;100657.13;5012403;28;96914;-87
2022/06/14 12:21:07;;;;;;;9.05;8.27;;;;;;;24.06;30.38;100644.72;5009366;28;101812;-87
2022/06/14 12:23:37;;;;;;;9.00;8.40;;;;;;;24.10;30.99;100658.72;5019359;28;101586;-87
2022/06/14 12:26:36;;;;;;;9.18;8.38;;;;;;;24.19;30.97;100660.59;5017515;28;97202;-87
2022/06/14 12:29:25;;;;;;;9.90;8.95;;;;;;;24.21;29.94;100653.28;5024792;28;96910;-87
2022/06/14 12:32:05;;;;;;;8.88;8.27;;;;;;;24.22;30.66;100640.72;5013347;28;101532;-86